sensor_id;sensor_type;location;lat;lon;timestamp;temperature;humidity
36660;DHT22;22654;51.054;3.654;2022-12-18T00:01:19;-3.00;99.90
36660;DHT22;22654;51.054;3.654;2022-12-18T00:03:46;-3.00;99.90
36660;DHT22;22654;51.054;3.654;2022-12-18T00:06:13;-3.00;99.90
36660;DHT22;22654;51.054;3.654;2022-12-18T00:08:41;-3.00;99.90
36660;DHT22;22654;51.054;3.654;2022-12-18T00:11:10;-3.10;99.90
36660;DHT22;22654;51.054;3.654;2022-12-18T00:13:36;-3.10;99.90
36660;DHT22;22654;51.054;3.654;2022-12-18T00:16:04;-3.00;99.90
36660;DHT22;22654;51.054;3.654;2022-12-18T00:18:30;-3.00;99.90
36660;DHT22;22654;51.054;3.654;2022-12-18T00:20:59;-3.00;99.90
36660;DHT22;22654;51.054;3.654;2022-12-18T00:23:26;-3.10;99.90
36660;DHT22;22654;51.054;3.654;2022-12-18T00:25:52;-3.00;99.90
36660;DHT22;22654;51.054;3.654;2022-12-18T00:28:18;-3.20;99.90
36660;DHT22;22654;51.054;3.654;2022-12-18T00:30:48;-3.30;99.90
36660;DHT22;22654;51.054;3.654;2022-12-18T00:33:17;-3.20;99.90
36660;DHT22;22654;51.054;3.654;2022-12-18T00:35:43;-3.20;99.90
36660;DHT22;22654;51.054;3.654;2022-12-18T00:38:09;-3.10;99.90
36660;DHT22;22654;51.054;3.654;2022-12-18T00:40:35;-2.90;99.90
36660;DHT22;22654;51.054;3.654;2022-12-18T00:43:01;-2.70;99.90
36660;DHT22;22654;51.054;3.654;2022-12-18T00:45:30;-3.00;99.90
36660;DHT22;22654;51.054;3.654;2022-12-18T00:47:57;-3.20;99.90
36660;DHT22;22654;51.054;3.654;2022-12-18T00:50:24;-3.30;99.90
36660;DHT22;22654;51.054;3.654;2022-12-18T00:52:50;-3.30;99.90
36660;DHT22;22654;51.054;3.654;2022-12-18T00:55:17;-3.60;99.90
36660;DHT22;22654;51.054;3.654;2022-12-18T00:57:43;-3.50;99.90
36660;DHT22;22654;51.054;3.654;2022-12-18T01:00:12;-3.30;99.90
36660;DHT22;22654;51.054;3.654;2022-12-18T01:02:40;-3.20;99.90
36660;DHT22;22654;51.054;3.654;2022-12-18T01:05:07;-3.20;99.90
36660;DHT22;22654;51.054;3.654;2022-12-18T01:07:33;-3.20;99.90
36660;DHT22;22654;51.054;3.654;2022-12-18T01:10:02;-3.20;99.90
36660;DHT22;22654;51.054;3.654;2022-12-18T01:12:28;-3.30;99.90
36660;DHT22;22654;51.054;3.654;2022-12-18T01:14:54;-3.10;99.90
36660;DHT22;22654;51.054;3.654;2022-12-18T01:17:20;-3.10;99.90
36660;DHT22;22654;51.054;3.654;2022-12-18T01:19:45;-3.20;99.90
36660;DHT22;22654;51.054;3.654;2022-12-18T01:22:11;-3.40;99.90
36660;DHT22;22654;51.054;3.654;2022-12-18T01:24:37;-3.30;99.90
36660;DHT22;22654;51.054;3.654;2022-12-18T01:27:03;-3.20;99.90
36660;DHT22;22654;51.054;3.654;2022-12-18T01:29:29;-3.30;99.90
36660;DHT22;22654;51.054;3.654;2022-12-18T01:31:56;-3.30;99.90
36660;DHT22;22654;51.054;3.654;2022-12-18T01:34:23;-3.20;99.90
36660;DHT22;22654;51.054;3.654;2022-12-18T01:36:48;-3.40;99.90
36660;DHT22;22654;51.054;3.654;2022-12-18T01:39:15;-3.60;99.90
36660;DHT22;22654;51.054;3.654;2022-12-18T01:41:41;-3.60;99.90
36660;DHT22;22654;51.054;3.654;2022-12-18T01:44:55;-3.60;99.90
36660;DHT22;22654;51.054;3.654;2022-12-18T01:47:26;-3.50;99.90
36660;DHT22;22654;51.054;3.654;2022-12-18T01:49:54;-3.30;99.90
36660;DHT22;22654;51.054;3.654;2022-12-18T01:52:21;-3.30;99.90
36660;DHT22;22654;51.054;3.654;2022-12-18T01:54:49;-2.80;99.90
36660;DHT22;22654;51.054;3.654;2022-12-18T01:57:16;-3.60;99.90
36660;DHT22;22654;51.054;3.654;2022-12-18T01:59:45;-3.60;99.90
36660;DHT22;22654;51.054;3.654;2022-12-18T02:02:14;-3.60;99.90
36660;DHT22;22654;51.054;3.654;2022-12-18T02:04:40;-3.80;99.90
36660;DHT22;22654;51.054;3.654;2022-12-18T02:10:06;-4.30;99.90
36660;DHT22;22654;51.054;3.654;2022-12-18T02:12:48;-4.20;99.90
36660;DHT22;22654;51.054;3.654;2022-12-18T02:15:26;-4.00;99.90
36660;DHT22;22654;51.054;3.654;2022-12-18T02:18:01;-4.10;99.90
36660;DHT22;22654;51.054;3.654;2022-12-18T02:28:12;-4.00;99.90
36660;DHT22;22654;51.054;3.654;2022-12-18T02:30:40;-3.90;99.90
36660;DHT22;22654;51.054;3.654;2022-12-18T02:33:08;-3.90;99.90
36660;DHT22;22654;51.054;3.654;2022-12-18T02:35:38;-3.90;99.90
36660;DHT22;22654;51.054;3.654;2022-12-18T02:38:06;-3.50;99.90
36660;DHT22;22654;51.054;3.654;2022-12-18T02:40:38;-3.20;99.90
36660;DHT22;22654;51.054;3.654;2022-12-18T02:45:33;-3.60;99.90
36660;DHT22;22654;51.054;3.654;2022-12-18T02:47:59;-3.50;99.90
36660;DHT22;22654;51.054;3.654;2022-12-18T02:56:07;-4.20;99.90
36660;DHT22;22654;51.054;3.654;2022-12-18T02:58:55;-4.20;99.90
36660;DHT22;22654;51.054;3.654;2022-12-18T03:01:59;-4.30;99.90
36660;DHT22;22654;51.054;3.654;2022-12-18T03:07:35;-4.90;99.90
36660;DHT22;22654;51.054;3.654;2022-12-18T03:10:07;-5.10;99.90
36660;DHT22;22654;51.054;3.654;2022-12-18T03:12:42;-5.30;99.90
36660;DHT22;22654;51.054;3.654;2022-12-18T03:17:46;-5.40;99.90
36660;DHT22;22654;51.054;3.654;2022-12-18T03:20:20;-5.50;99.90
36660;DHT22;22654;51.054;3.654;2022-12-18T03:22:51;-5.30;99.90
36660;DHT22;22654;51.054;3.654;2022-12-18T03:25:19;-5.10;99.90
36660;DHT22;22654;51.054;3.654;2022-12-18T03:27:49;-4.60;99.90
36660;DHT22;22654;51.054;3.654;2022-12-18T03:30:17;-4.80;99.90
36660;DHT22;22654;51.054;3.654;2022-12-18T03:33:09;-4.80;99.90
36660;DHT22;22654;51.054;3.654;2022-12-18T03:35:41;-4.90;99.90
36660;DHT22;22654;51.054;3.654;2022-12-18T03:38:10;-4.70;99.90
36660;DHT22;22654;51.054;3.654;2022-12-18T03:46:21;-4.80;99.90
36660;DHT22;22654;51.054;3.654;2022-12-18T03:48:52;-4.80;99.90
36660;DHT22;22654;51.054;3.654;2022-12-18T03:54:03;-4.70;99.90
36660;DHT22;22654;51.054;3.654;2022-12-18T03:56:54;-4.70;99.90
36660;DHT22;22654;51.054;3.654;2022-12-18T03:59:23;-4.60;99.90
36660;DHT22;22654;51.054;3.654;2022-12-18T04:01:51;-4.60;99.90
36660;DHT22;22654;51.054;3.654;2022-12-18T04:04:19;-4.30;99.90
36660;DHT22;22654;51.054;3.654;2022-12-18T04:06:47;-4.40;99.90
36660;DHT22;22654;51.054;3.654;2022-12-18T04:09:17;-4.30;99.90
36660;DHT22;22654;51.054;3.654;2022-12-18T04:11:46;-4.20;99.90
36660;DHT22;22654;51.054;3.654;2022-12-18T04:14:14;-4.30;99.90
36660;DHT22;22654;51.054;3.654;2022-12-18T04:16:40;-4.30;99.90
36660;DHT22;22654;51.054;3.654;2022-12-18T04:19:10;-4.40;99.90
36660;DHT22;22654;51.054;3.654;2022-12-18T04:21:39;-4.50;99.90
36660;DHT22;22654;51.054;3.654;2022-12-18T04:24:06;-4.40;99.90
36660;DHT22;22654;51.054;3.654;2022-12-18T04:26:34;-4.40;99.90
36660;DHT22;22654;51.054;3.654;2022-12-18T04:29:11;-4.20;99.90
36660;DHT22;22654;51.054;3.654;2022-12-18T04:31:38;-4.30;99.90
36660;DHT22;22654;51.054;3.654;2022-12-18T04:34:04;-4.50;99.90
36660;DHT22;22654;51.054;3.654;2022-12-18T04:36:36;-4.60;99.90
36660;DHT22;22654;51.054;3.654;2022-12-18T04:39:02;-5.00;99.90
36660;DHT22;22654;51.054;3.654;2022-12-18T04:41:30;-5.10;99.90
36660;DHT22;22654;51.054;3.654;2022-12-18T04:43:56;-4.90;99.90
36660;DHT22;22654;51.054;3.654;2022-12-18T04:46:21;-5.10;99.90
36660;DHT22;22654;51.054;3.654;2022-12-18T04:48:47;-4.80;99.90
36660;DHT22;22654;51.054;3.654;2022-12-18T04:51:13;-4.20;99.90
36660;DHT22;22654;51.054;3.654;2022-12-18T04:53:39;-4.20;99.90
36660;DHT22;22654;51.054;3.654;2022-12-18T04:56:13;-4.20;99.90
36660;DHT22;22654;51.054;3.654;2022-12-18T04:58:40;-4.10;99.90
36660;DHT22;22654;51.054;3.654;2022-12-18T05:01:06;-4.30;99.90
36660;DHT22;22654;51.054;3.654;2022-12-18T05:03:33;-4.40;99.90
36660;DHT22;22654;51.054;3.654;2022-12-18T05:05:59;-4.30;99.90
36660;DHT22;22654;51.054;3.654;2022-12-18T05:08:25;-4.40;99.90
36660;DHT22;22654;51.054;3.654;2022-12-18T05:11:02;-4.40;99.90
36660;DHT22;22654;51.054;3.654;2022-12-18T05:13:28;-4.20;99.90
36660;DHT22;22654;51.054;3.654;2022-12-18T05:15:55;-4.20;99.90
36660;DHT22;22654;51.054;3.654;2022-12-18T05:18:24;-4.20;99.90
36660;DHT22;22654;51.054;3.654;2022-12-18T05:20:51;-4.20;99.90
36660;DHT22;22654;51.054;3.654;2022-12-18T05:23:18;-4.50;99.90
36660;DHT22;22654;51.054;3.654;2022-12-18T05:28:17;-4.30;99.90
36660;DHT22;22654;51.054;3.654;2022-12-18T05:30:50;-4.30;99.90
36660;DHT22;22654;51.054;3.654;2022-12-18T05:33:18;-4.30;99.90
36660;DHT22;22654;51.054;3.654;2022-12-18T05:35:44;-4.00;99.90
36660;DHT22;22654;51.054;3.654;2022-12-18T05:38:10;-4.70;99.90
36660;DHT22;22654;51.054;3.654;2022-12-18T05:40:36;-4.60;99.90
36660;DHT22;22654;51.054;3.654;2022-12-18T05:43:02;-4.90;99.90
36660;DHT22;22654;51.054;3.654;2022-12-18T05:45:28;-5.10;99.90
36660;DHT22;22654;51.054;3.654;2022-12-18T05:47:54;-5.30;99.90
36660;DHT22;22654;51.054;3.654;2022-12-18T05:50:19;-5.40;99.90
36660;DHT22;22654;51.054;3.654;2022-12-18T05:52:45;-5.50;99.90
36660;DHT22;22654;51.054;3.654;2022-12-18T05:55:11;-5.20;99.90
36660;DHT22;22654;51.054;3.654;2022-12-18T05:57:37;-5.10;99.90
36660;DHT22;22654;51.054;3.654;2022-12-18T06:00:03;-4.90;99.90
36660;DHT22;22654;51.054;3.654;2022-12-18T06:02:37;-4.60;99.90
36660;DHT22;22654;51.054;3.654;2022-12-18T06:05:04;-4.40;99.90
36660;DHT22;22654;51.054;3.654;2022-12-18T06:07:30;-4.30;99.90
36660;DHT22;22654;51.054;3.654;2022-12-18T06:09:55;-4.10;99.90
36660;DHT22;22654;51.054;3.654;2022-12-18T06:12:21;-4.10;99.90
36660;DHT22;22654;51.054;3.654;2022-12-18T06:14:47;-4.20;99.90
36660;DHT22;22654;51.054;3.654;2022-12-18T06:17:13;-4.40;99.90
36660;DHT22;22654;51.054;3.654;2022-12-18T06:19:39;-4.40;99.90
36660;DHT22;22654;51.054;3.654;2022-12-18T06:22:05;-4.50;99.90
36660;DHT22;22654;51.054;3.654;2022-12-18T06:24:31;-4.50;99.90
36660;DHT22;22654;51.054;3.654;2022-12-18T06:26:56;-4.20;99.90
36660;DHT22;22654;51.054;3.654;2022-12-18T06:29:22;-4.20;99.90
36660;DHT22;22654;51.054;3.654;2022-12-18T06:31:48;-4.10;99.90
36660;DHT22;22654;51.054;3.654;2022-12-18T06:34:14;-4.10;99.90
36660;DHT22;22654;51.054;3.654;2022-12-18T06:36:40;-4.10;99.90
36660;DHT22;22654;51.054;3.654;2022-12-18T06:39:05;-4.20;99.90
36660;DHT22;22654;51.054;3.654;2022-12-18T06:41:31;-4.10;99.90
36660;DHT22;22654;51.054;3.654;2022-12-18T06:43:57;-4.20;99.90
36660;DHT22;22654;51.054;3.654;2022-12-18T06:46:23;-4.20;99.90
36660;DHT22;22654;51.054;3.654;2022-12-18T06:48:50;-4.10;99.90
36660;DHT22;22654;51.054;3.654;2022-12-18T06:51:18;-3.60;99.90
36660;DHT22;22654;51.054;3.654;2022-12-18T06:53:44;-4.10;99.90
36660;DHT22;22654;51.054;3.654;2022-12-18T06:56:10;-4.00;99.90
36660;DHT22;22654;51.054;3.654;2022-12-18T06:58:36;-3.80;99.90
36660;DHT22;22654;51.054;3.654;2022-12-18T07:01:07;-3.80;99.90
36660;DHT22;22654;51.054;3.654;2022-12-18T07:03:33;-3.80;99.90
36660;DHT22;22654;51.054;3.654;2022-12-18T07:05:59;-3.80;99.90
36660;DHT22;22654;51.054;3.654;2022-12-18T07:08:25;-3.90;99.90
36660;DHT22;22654;51.054;3.654;2022-12-18T07:10:51;-3.90;99.90
36660;DHT22;22654;51.054;3.654;2022-12-18T07:13:18;-3.80;99.90
36660;DHT22;22654;51.054;3.654;2022-12-18T07:15:44;-3.80;99.90
36660;DHT22;22654;51.054;3.654;2022-12-18T07:18:10;-3.90;99.90
36660;DHT22;22654;51.054;3.654;2022-12-18T07:20:36;-3.50;99.90
36660;DHT22;22654;51.054;3.654;2022-12-18T07:23:03;-3.90;99.90
36660;DHT22;22654;51.054;3.654;2022-12-18T07:25:29;-3.90;99.90
36660;DHT22;22654;51.054;3.654;2022-12-18T07:27:55;-4.00;99.90
36660;DHT22;22654;51.054;3.654;2022-12-18T07:30:20;-4.00;99.90
36660;DHT22;22654;51.054;3.654;2022-12-18T07:32:46;-4.00;99.90
36660;DHT22;22654;51.054;3.654;2022-12-18T07:35:12;-3.80;99.90
36660;DHT22;22654;51.054;3.654;2022-12-18T07:37:38;-4.00;99.90
36660;DHT22;22654;51.054;3.654;2022-12-18T07:40:04;-3.90;99.90
36660;DHT22;22654;51.054;3.654;2022-12-18T07:42:30;-3.90;99.90
36660;DHT22;22654;51.054;3.654;2022-12-18T07:44:57;-3.80;99.90
36660;DHT22;22654;51.054;3.654;2022-12-18T07:47:23;-3.90;99.90
36660;DHT22;22654;51.054;3.654;2022-12-18T07:49:48;-3.60;99.90
36660;DHT22;22654;51.054;3.654;2022-12-18T07:52:15;-3.80;99.90
36660;DHT22;22654;51.054;3.654;2022-12-18T07:54:40;-3.80;99.90
36660;DHT22;22654;51.054;3.654;2022-12-18T07:57:07;-3.80;99.90
36660;DHT22;22654;51.054;3.654;2022-12-18T07:59:32;-3.80;99.90
36660;DHT22;22654;51.054;3.654;2022-12-18T08:01:58;-3.80;99.90
36660;DHT22;22654;51.054;3.654;2022-12-18T08:04:25;-3.60;99.90
36660;DHT22;22654;51.054;3.654;2022-12-18T08:06:51;-3.80;99.90
36660;DHT22;22654;51.054;3.654;2022-12-18T08:09:18;-3.80;99.90
36660;DHT22;22654;51.054;3.654;2022-12-18T08:11:44;-3.70;99.90
36660;DHT22;22654;51.054;3.654;2022-12-18T08:14:10;-3.70;99.90
36660;DHT22;22654;51.054;3.654;2022-12-18T08:16:36;-3.60;99.90
36660;DHT22;22654;51.054;3.654;2022-12-18T08:19:02;-3.70;99.90
36660;DHT22;22654;51.054;3.654;2022-12-18T08:21:29;-3.60;99.90
36660;DHT22;22654;51.054;3.654;2022-12-18T08:23:58;-3.60;99.90
36660;DHT22;22654;51.054;3.654;2022-12-18T08:26:26;-3.50;99.90
36660;DHT22;22654;51.054;3.654;2022-12-18T08:28:55;-3.50;99.90
36660;DHT22;22654;51.054;3.654;2022-12-18T08:31:21;-3.30;99.90
36660;DHT22;22654;51.054;3.654;2022-12-18T08:33:51;-3.20;99.90
36660;DHT22;22654;51.054;3.654;2022-12-18T08:36:18;-3.10;99.90
36660;DHT22;22654;51.054;3.654;2022-12-18T08:38:45;-3.00;99.90
36660;DHT22;22654;51.054;3.654;2022-12-18T08:41:13;-3.00;99.90
36660;DHT22;22654;51.054;3.654;2022-12-18T08:43:39;-2.90;99.90
36660;DHT22;22654;51.054;3.654;2022-12-18T08:46:25;-2.80;99.90
36660;DHT22;22654;51.054;3.654;2022-12-18T08:48:53;-2.70;99.90
36660;DHT22;22654;51.054;3.654;2022-12-18T08:51:19;-2.60;99.90
36660;DHT22;22654;51.054;3.654;2022-12-18T08:53:46;-2.50;99.90
36660;DHT22;22654;51.054;3.654;2022-12-18T08:56:12;-2.40;99.90
36660;DHT22;22654;51.054;3.654;2022-12-18T08:58:39;-2.40;99.90
36660;DHT22;22654;51.054;3.654;2022-12-18T09:01:08;-2.30;99.90
36660;DHT22;22654;51.054;3.654;2022-12-18T09:03:35;-2.30;99.90
36660;DHT22;22654;51.054;3.654;2022-12-18T09:06:01;-2.20;99.90
36660;DHT22;22654;51.054;3.654;2022-12-18T09:08:27;-2.10;99.90
36660;DHT22;22654;51.054;3.654;2022-12-18T09:10:53;-2.10;99.90
36660;DHT22;22654;51.054;3.654;2022-12-18T09:13:21;-1.90;99.90
36660;DHT22;22654;51.054;3.654;2022-12-18T09:15:52;-2.00;99.90
36660;DHT22;22654;51.054;3.654;2022-12-18T09:18:21;-1.90;99.90
36660;DHT22;22654;51.054;3.654;2022-12-18T09:20:47;-1.80;99.90
36660;DHT22;22654;51.054;3.654;2022-12-18T09:23:13;-1.70;99.90
36660;DHT22;22654;51.054;3.654;2022-12-18T09:25:40;-1.60;99.90
36660;DHT22;22654;51.054;3.654;2022-12-18T09:28:10;-1.50;99.90
36660;DHT22;22654;51.054;3.654;2022-12-18T09:30:41;-1.30;99.90
36660;DHT22;22654;51.054;3.654;2022-12-18T09:33:07;-1.10;99.90
36660;DHT22;22654;51.054;3.654;2022-12-18T09:35:40;-1.20;99.90
36660;DHT22;22654;51.054;3.654;2022-12-18T09:38:07;-1.10;99.90
36660;DHT22;22654;51.054;3.654;2022-12-18T09:40:52;-1.10;99.90
36660;DHT22;22654;51.054;3.654;2022-12-18T09:43:24;-1.10;99.90
36660;DHT22;22654;51.054;3.654;2022-12-18T09:45:57;-1.00;99.90
36660;DHT22;22654;51.054;3.654;2022-12-18T09:48:32;-1.00;99.90
36660;DHT22;22654;51.054;3.654;2022-12-18T09:51:11;-1.20;99.90
36660;DHT22;22654;51.054;3.654;2022-12-18T09:53:39;-1.10;99.90
36660;DHT22;22654;51.054;3.654;2022-12-18T09:56:12;-1.10;99.90
36660;DHT22;22654;51.054;3.654;2022-12-18T09:59:03;-1.20;99.90
36660;DHT22;22654;51.054;3.654;2022-12-18T10:01:30;-1.10;99.90
36660;DHT22;22654;51.054;3.654;2022-12-18T10:03:56;-1.00;99.90
36660;DHT22;22654;51.054;3.654;2022-12-18T10:06:24;-1.00;99.90
36660;DHT22;22654;51.054;3.654;2022-12-18T10:09:02;-1.00;99.90
36660;DHT22;22654;51.054;3.654;2022-12-18T10:11:55;-0.90;99.90
36660;DHT22;22654;51.054;3.654;2022-12-18T10:25:24;-0.80;99.90
36660;DHT22;22654;51.054;3.654;2022-12-18T10:27:54;-0.70;99.90
36660;DHT22;22654;51.054;3.654;2022-12-18T10:30:23;-0.70;99.90
36660;DHT22;22654;51.054;3.654;2022-12-18T10:32:49;-0.70;99.90
36660;DHT22;22654;51.054;3.654;2022-12-18T10:35:24;-0.60;99.90
36660;DHT22;22654;51.054;3.654;2022-12-18T10:46:02;-0.40;99.90
36660;DHT22;22654;51.054;3.654;2022-12-18T10:48:29;-0.40;99.90
36660;DHT22;22654;51.054;3.654;2022-12-18T10:50:57;-0.40;99.90
36660;DHT22;22654;51.054;3.654;2022-12-18T10:53:25;-0.30;99.90
36660;DHT22;22654;51.054;3.654;2022-12-18T10:55:54;-0.30;99.90
36660;DHT22;22654;51.054;3.654;2022-12-18T10:58:28;-0.20;99.90
36660;DHT22;22654;51.054;3.654;2022-12-18T11:06:19;0.00;99.90
36660;DHT22;22654;51.054;3.654;2022-12-18T11:11:48;-0.20;99.90
36660;DHT22;22654;51.054;3.654;2022-12-18T11:14:45;-0.30;99.90
36660;DHT22;22654;51.054;3.654;2022-12-18T11:17:29;-0.30;99.90
36660;DHT22;22654;51.054;3.654;2022-12-18T11:20:04;-0.30;99.90
36660;DHT22;22654;51.054;3.654;2022-12-18T11:22:34;-0.40;99.90
36660;DHT22;22654;51.054;3.654;2022-12-18T11:25:06;-0.40;99.90
36660;DHT22;22654;51.054;3.654;2022-12-18T11:27:39;-0.40;99.90
36660;DHT22;22654;51.054;3.654;2022-12-18T11:30:29;-0.30;99.90
36660;DHT22;22654;51.054;3.654;2022-12-18T11:33:19;-0.30;99.90
36660;DHT22;22654;51.054;3.654;2022-12-18T11:35:52;-0.30;99.90
36660;DHT22;22654;51.054;3.654;2022-12-18T11:38:41;-0.10;99.90
36660;DHT22;22654;51.054;3.654;2022-12-18T11:43:52;-0.10;99.90
36660;DHT22;22654;51.054;3.654;2022-12-18T11:46:43;-0.10;99.90
36660;DHT22;22654;51.054;3.654;2022-12-18T11:49:17;-0.10;99.90
36660;DHT22;22654;51.054;3.654;2022-12-18T11:54:16;-0.10;99.90
36660;DHT22;22654;51.054;3.654;2022-12-18T11:56:53;-0.10;99.90
36660;DHT22;22654;51.054;3.654;2022-12-18T11:59:36;-0.10;99.90
36660;DHT22;22654;51.054;3.654;2022-12-18T12:07:49;0.20;99.90
36660;DHT22;22654;51.054;3.654;2022-12-18T12:21:39;0.20;99.90
36660;DHT22;22654;51.054;3.654;2022-12-18T12:30:45;0.50;99.90
36660;DHT22;22654;51.054;3.654;2022-12-18T12:38:45;0.60;99.90
36660;DHT22;22654;51.054;3.654;2022-12-18T12:41:18;0.60;99.90
36660;DHT22;22654;51.054;3.654;2022-12-18T12:44:08;0.60;99.90
36660;DHT22;22654;51.054;3.654;2022-12-18T12:46:39;0.70;99.90
36660;DHT22;22654;51.054;3.654;2022-12-18T12:49:13;0.70;99.90
36660;DHT22;22654;51.054;3.654;2022-12-18T12:51:43;0.80;99.90
36660;DHT22;22654;51.054;3.654;2022-12-18T12:54:17;0.80;99.90
36660;DHT22;22654;51.054;3.654;2022-12-18T12:59:47;1.00;99.90
36660;DHT22;22654;51.054;3.654;2022-12-18T13:08:04;1.30;99.90
36660;DHT22;22654;51.054;3.654;2022-12-18T13:10:34;1.30;99.90
36660;DHT22;22654;51.054;3.654;2022-12-18T13:13:02;1.20;99.90
36660;DHT22;22654;51.054;3.654;2022-12-18T13:20:36;1.20;99.90
36660;DHT22;22654;51.054;3.654;2022-12-18T13:25:50;1.40;99.90
36660;DHT22;22654;51.054;3.654;2022-12-18T13:31:02;1.30;99.90
36660;DHT22;22654;51.054;3.654;2022-12-18T13:36:10;1.10;99.90
36660;DHT22;22654;51.054;3.654;2022-12-18T13:38:38;1.00;99.90
36660;DHT22;22654;51.054;3.654;2022-12-18T13:43:45;0.80;99.90
36660;DHT22;22654;51.054;3.654;2022-12-18T13:46:41;0.80;99.90
36660;DHT22;22654;51.054;3.654;2022-12-18T13:49:24;0.90;99.90
36660;DHT22;22654;51.054;3.654;2022-12-18T13:51:53;1.10;99.90
36660;DHT22;22654;51.054;3.654;2022-12-18T13:54:40;1.20;99.90
36660;DHT22;22654;51.054;3.654;2022-12-18T13:57:33;1.10;99.90
36660;DHT22;22654;51.054;3.654;2022-12-18T14:02:45;1.20;99.90
36660;DHT22;22654;51.054;3.654;2022-12-18T14:05:35;1.20;99.90
36660;DHT22;22654;51.054;3.654;2022-12-18T14:08:10;1.20;99.90
36660;DHT22;22654;51.054;3.654;2022-12-18T14:10:44;1.20;99.90
36660;DHT22;22654;51.054;3.654;2022-12-18T14:13:16;1.00;99.90
36660;DHT22;22654;51.054;3.654;2022-12-18T14:15:46;1.10;99.90
36660;DHT22;22654;51.054;3.654;2022-12-18T14:18:23;1.20;99.90
36660;DHT22;22654;51.054;3.654;2022-12-18T14:20:52;1.10;99.90
36660;DHT22;22654;51.054;3.654;2022-12-18T14:23:39;1.10;99.90
36660;DHT22;22654;51.054;3.654;2022-12-18T14:28:55;0.90;99.90
36660;DHT22;22654;51.054;3.654;2022-12-18T14:31:26;1.00;99.90
36660;DHT22;22654;51.054;3.654;2022-12-18T14:33:53;1.00;99.90
36660;DHT22;22654;51.054;3.654;2022-12-18T14:36:24;1.10;99.90
36660;DHT22;22654;51.054;3.654;2022-12-18T14:38:51;1.00;99.90
36660;DHT22;22654;51.054;3.654;2022-12-18T14:41:19;0.80;99.90
36660;DHT22;22654;51.054;3.654;2022-12-18T14:43:51;0.70;99.90
36660;DHT22;22654;51.054;3.654;2022-12-18T14:46:35;0.70;99.90
36660;DHT22;22654;51.054;3.654;2022-12-18T14:51:56;0.70;99.90
36660;DHT22;22654;51.054;3.654;2022-12-18T14:54:24;0.70;99.90
36660;DHT22;22654;51.054;3.654;2022-12-18T14:57:23;0.70;99.90
36660;DHT22;22654;51.054;3.654;2022-12-18T14:59:49;0.80;99.90
36660;DHT22;22654;51.054;3.654;2022-12-18T15:02:27;0.90;99.90
36660;DHT22;22654;51.054;3.654;2022-12-18T15:07:44;0.80;99.90
36660;DHT22;22654;51.054;3.654;2022-12-18T15:10:13;0.90;99.90
36660;DHT22;22654;51.054;3.654;2022-12-18T15:12:49;0.80;99.90
36660;DHT22;22654;51.054;3.654;2022-12-18T15:23:50;1.00;99.90
36660;DHT22;22654;51.054;3.654;2022-12-18T15:26:18;0.90;99.90
36660;DHT22;22654;51.054;3.654;2022-12-18T15:28:51;1.30;99.90
36660;DHT22;22654;51.054;3.654;2022-12-18T15:33:47;0.90;99.90
36660;DHT22;22654;51.054;3.654;2022-12-18T15:36:25;0.80;99.90
36660;DHT22;22654;51.054;3.654;2022-12-18T15:38:55;0.90;99.90
36660;DHT22;22654;51.054;3.654;2022-12-18T15:41:22;1.00;99.90
36660;DHT22;22654;51.054;3.654;2022-12-18T15:43:50;0.90;99.90
36660;DHT22;22654;51.054;3.654;2022-12-18T15:46:18;1.00;99.90
36660;DHT22;22654;51.054;3.654;2022-12-18T15:49:04;1.10;99.90
36660;DHT22;22654;51.054;3.654;2022-12-18T15:51:35;1.10;99.90
36660;DHT22;22654;51.054;3.654;2022-12-18T15:54:04;1.10;99.90
36660;DHT22;22654;51.054;3.654;2022-12-18T15:56:32;1.10;99.90
36660;DHT22;22654;51.054;3.654;2022-12-18T15:59:18;1.10;99.90
36660;DHT22;22654;51.054;3.654;2022-12-18T16:01:49;1.10;99.90
36660;DHT22;22654;51.054;3.654;2022-12-18T16:04:17;1.10;99.90
36660;DHT22;22654;51.054;3.654;2022-12-18T16:06:47;1.30;99.90
36660;DHT22;22654;51.054;3.654;2022-12-18T16:09:13;1.30;99.90
36660;DHT22;22654;51.054;3.654;2022-12-18T16:11:41;1.20;99.90
36660;DHT22;22654;51.054;3.654;2022-12-18T16:14:28;1.20;99.90
36660;DHT22;22654;51.054;3.654;2022-12-18T16:16:59;1.20;99.90
36660;DHT22;22654;51.054;3.654;2022-12-18T16:19:26;1.20;99.90
36660;DHT22;22654;51.054;3.654;2022-12-18T16:21:54;1.30;99.90
36660;DHT22;22654;51.054;3.654;2022-12-18T16:24:23;1.30;99.90
36660;DHT22;22654;51.054;3.654;2022-12-18T16:26:50;1.30;99.90
36660;DHT22;22654;51.054;3.654;2022-12-18T16:29:20;1.30;99.90
36660;DHT22;22654;51.054;3.654;2022-12-18T16:31:53;1.30;99.90
36660;DHT22;22654;51.054;3.654;2022-12-18T16:34:26;1.30;99.90
36660;DHT22;22654;51.054;3.654;2022-12-18T16:36:59;1.30;99.90
36660;DHT22;22654;51.054;3.654;2022-12-18T16:39:25;1.30;99.90
36660;DHT22;22654;51.054;3.654;2022-12-18T16:41:52;1.20;99.90
36660;DHT22;22654;51.054;3.654;2022-12-18T16:44:18;1.30;99.90
36660;DHT22;22654;51.054;3.654;2022-12-18T16:46:44;1.30;99.90
36660;DHT22;22654;51.054;3.654;2022-12-18T16:49:14;1.30;99.90
36660;DHT22;22654;51.054;3.654;2022-12-18T16:51:40;1.30;99.90
36660;DHT22;22654;51.054;3.654;2022-12-18T16:54:06;1.30;99.90
36660;DHT22;22654;51.054;3.654;2022-12-18T16:56:32;1.40;99.90
36660;DHT22;22654;51.054;3.654;2022-12-18T16:59:00;1.50;99.90
36660;DHT22;22654;51.054;3.654;2022-12-18T17:01:27;1.60;99.90
36660;DHT22;22654;51.054;3.654;2022-12-18T17:04:02;1.50;99.90
36660;DHT22;22654;51.054;3.654;2022-12-18T17:06:31;1.50;99.90
36660;DHT22;22654;51.054;3.654;2022-12-18T17:09:03;1.30;99.90
36660;DHT22;22654;51.054;3.654;2022-12-18T17:11:31;1.50;99.90
36660;DHT22;22654;51.054;3.654;2022-12-18T17:13:57;1.50;99.90
36660;DHT22;22654;51.054;3.654;2022-12-18T17:16:24;1.50;99.90
36660;DHT22;22654;51.054;3.654;2022-12-18T17:18:52;1.50;99.90
36660;DHT22;22654;51.054;3.654;2022-12-18T17:21:18;1.50;99.90
36660;DHT22;22654;51.054;3.654;2022-12-18T17:23:44;1.60;99.90
36660;DHT22;22654;51.054;3.654;2022-12-18T17:26:11;1.70;99.90
36660;DHT22;22654;51.054;3.654;2022-12-18T17:28:38;1.60;99.90
36660;DHT22;22654;51.054;3.654;2022-12-18T17:31:12;1.60;99.90
36660;DHT22;22654;51.054;3.654;2022-12-18T17:33:39;1.50;99.90
36660;DHT22;22654;51.054;3.654;2022-12-18T17:36:06;1.60;99.90
36660;DHT22;22654;51.054;3.654;2022-12-18T17:38:32;1.80;99.90
36660;DHT22;22654;51.054;3.654;2022-12-18T17:41:05;1.70;99.90
36660;DHT22;22654;51.054;3.654;2022-12-18T17:43:31;1.70;99.90
36660;DHT22;22654;51.054;3.654;2022-12-18T17:46:04;1.70;99.90
36660;DHT22;22654;51.054;3.654;2022-12-18T17:48:31;1.70;99.90
36660;DHT22;22654;51.054;3.654;2022-12-18T17:51:05;1.60;99.90
36660;DHT22;22654;51.054;3.654;2022-12-18T17:53:31;1.70;99.90
36660;DHT22;22654;51.054;3.654;2022-12-18T17:55:58;1.70;99.90
36660;DHT22;22654;51.054;3.654;2022-12-18T17:58:31;1.60;99.90
36660;DHT22;22654;51.054;3.654;2022-12-18T18:00:57;1.50;99.90
36660;DHT22;22654;51.054;3.654;2022-12-18T18:03:24;1.50;99.90
36660;DHT22;22654;51.054;3.654;2022-12-18T18:05:57;1.50;99.90
36660;DHT22;22654;51.054;3.654;2022-12-18T18:08:24;1.50;99.90
36660;DHT22;22654;51.054;3.654;2022-12-18T18:10:51;1.40;99.90
36660;DHT22;22654;51.054;3.654;2022-12-18T18:13:22;1.50;99.90
36660;DHT22;22654;51.054;3.654;2022-12-18T18:16:08;1.50;99.90